createdAt,value
2017-12-14T00:00:53.597Z,2.50
2017-12-14T00:03:19.622Z,2.60
2017-12-14T00:05:45.596Z,2.60
2017-12-14T00:08:11.600Z,2.40
2017-12-14T00:10:37.628Z,2.30
2017-12-14T00:13:03.571Z,2.30
2017-12-14T00:15:29.565Z,2.20
2017-12-14T00:17:55.540Z,2.30
2017-12-14T00:20:23.002Z,2.30
2017-12-14T00:22:49.009Z,2.30
2017-12-14T00:25:14.948Z,2.50
2017-12-14T00:27:41.664Z,2.50
2017-12-14T00:30:07.808Z,2.50
2017-12-14T00:32:33.770Z,2.50
2017-12-14T00:34:59.761Z,2.60
2017-12-14T00:37:26.492Z,2.60
2017-12-14T00:39:52.454Z,2.50
2017-12-14T00:42:18.429Z,2.50
2017-12-14T00:44:45.800Z,2.50
2017-12-14T00:47:12.512Z,2.50
2017-12-14T00:49:38.474Z,2.50
2017-12-14T00:52:04.480Z,2.60
2017-12-14T00:54:31.191Z,2.60
2017-12-14T00:56:57.186Z,2.60
2017-12-14T00:59:23.357Z,2.70
2017-12-14T01:01:50.076Z,2.90
2017-12-14T01:04:16.044Z,2.90
2017-12-14T01:06:42.236Z,3.10
2017-12-14T01:09:08.217Z,3.00
2017-12-14T01:11:34.218Z,3.00
2017-12-14T01:14:00.173Z,2.90
2017-12-14T01:16:26.147Z,3.00
2017-12-14T01:18:52.140Z,3.00
2017-12-14T01:21:18.096Z,3.00
2017-12-14T01:23:44.068Z,3.00
2017-12-14T01:26:10.040Z,3.00
2017-12-14T01:28:36.009Z,2.90
2017-12-14T01:31:01.995Z,2.90
2017-12-14T01:33:27.972Z,3.00
2017-12-14T01:35:53.958Z,2.90
2017-12-14T01:38:19.916Z,2.80
2017-12-14T01:40:46.672Z,2.70
2017-12-14T01:43:13.406Z,2.80
2017-12-14T01:45:40.109Z,2.80
2017-12-14T01:48:06.096Z,2.80
2017-12-14T01:50:32.057Z,3.00
2017-12-14T01:52:58.024Z,3.00
2017-12-14T01:55:24.048Z,3.00
2017-12-14T01:57:50.015Z,3.00
2017-12-14T02:00:15.992Z,3.10
2017-12-14T02:02:42.304Z,3.30
2017-12-14T02:05:09.048Z,3.40
2017-12-14T02:07:35.794Z,3.50
2017-12-14T02:10:01.758Z,3.50
2017-12-14T02:12:27.719Z,3.60
2017-12-14T02:14:54.443Z,3.60
2017-12-14T02:17:20.432Z,3.60
2017-12-14T02:19:46.405Z,3.70
2017-12-14T02:22:13.139Z,3.70
2017-12-14T02:24:39.860Z,3.80
2017-12-14T02:27:05.960Z,3.80
2017-12-14T02:29:31.952Z,3.80
2017-12-14T02:31:57.933Z,3.90
2017-12-14T02:34:23.989Z,3.90
2017-12-14T02:36:49.920Z,4.00
2017-12-14T02:39:15.892Z,4.00
2017-12-14T02:41:41.876Z,4.00
2017-12-14T02:44:07.852Z,4.00
2017-12-14T02:46:34.565Z,4.00
2017-12-14T02:49:00.914Z,4.00
2017-12-14T02:51:26.950Z,4.00
2017-12-14T02:53:53.752Z,4.10
2017-12-14T02:56:19.708Z,4.00
2017-12-14T02:58:46.468Z,4.10
2017-12-14T03:01:12.461Z,4.10
2017-12-14T03:03:39.200Z,4.10
2017-12-14T03:06:05.932Z,4.10
2017-12-14T03:08:31.947Z,4.10
2017-12-14T03:10:57.945Z,4.20
2017-12-14T03:13:23.912Z,4.20
2017-12-14T03:15:50.671Z,4.20
2017-12-14T03:18:16.657Z,4.20
2017-12-14T03:20:42.890Z,4.20
2017-12-14T03:23:09.613Z,4.10
2017-12-14T03:25:35.612Z,4.10
2017-12-14T03:28:01.584Z,4.10
2017-12-14T03:30:28.313Z,4.10
2017-12-14T03:33:02.404Z,4.10
2017-12-14T03:35:28.404Z,4.10
2017-12-14T03:37:54.365Z,4.10
2017-12-14T03:40:20.484Z,4.10
2017-12-14T03:42:46.480Z,4.10
2017-12-14T03:45:12.701Z,4.20
2017-12-14T03:47:38.703Z,4.20
2017-12-14T03:50:04.680Z,4.20
2017-12-14T03:52:31.441Z,4.30
2017-12-14T03:54:58.377Z,4.30
2017-12-14T03:57:25.096Z,4.30
2017-12-14T03:59:51.841Z,4.30
2017-12-14T04:02:17.845Z,4.30
2017-12-14T04:04:43.851Z,4.30
2017-12-14T04:07:09.860Z,4.30
2017-12-14T04:09:35.851Z,4.40
2017-12-14T04:12:01.827Z,4.40
2017-12-14T04:14:27.801Z,4.30
2017-12-14T04:16:53.869Z,4.40
2017-12-14T04:19:19.857Z,4.40
2017-12-14T04:21:45.836Z,4.40
2017-12-14T04:24:12.216Z,4.40
2017-12-14T04:26:38.200Z,4.40
2017-12-14T04:29:04.906Z,4.40
2017-12-14T04:31:30.901Z,4.40
2017-12-14T04:33:56.932Z,4.40
2017-12-14T04:36:22.880Z,4.40
2017-12-14T04:38:49.225Z,4.40
2017-12-14T04:41:16.001Z,4.40
2017-12-14T04:43:42.002Z,4.30
2017-12-14T04:46:08.256Z,4.40
2017-12-14T04:48:34.259Z,4.30
2017-12-14T04:51:00.226Z,4.30
2017-12-14T04:53:26.579Z,4.30
2017-12-14T04:55:52.556Z,4.20
2017-12-14T04:58:18.540Z,4.20
2017-12-14T05:00:45.304Z,4.20
2017-12-14T05:03:11.288Z,4.20
2017-12-14T05:05:37.657Z,4.20
2017-12-14T05:08:04.352Z,4.20
2017-12-14T05:10:30.333Z,4.20
2017-12-14T05:12:56.304Z,4.20
2017-12-14T05:15:23.044Z,4.20
2017-12-14T05:17:49.736Z,4.20
2017-12-14T05:20:15.828Z,4.10
2017-12-14T05:22:41.804Z,4.10
2017-12-14T05:25:07.789Z,4.20
2017-12-14T05:27:33.777Z,4.10
2017-12-14T05:30:00.490Z,4.10
2017-12-14T05:32:26.471Z,4.10
2017-12-14T05:34:52.549Z,4.10
2017-12-14T05:37:18.508Z,4.10
2017-12-14T05:39:44.487Z,4.00
2017-12-14T05:42:11.537Z,4.10
2017-12-14T05:44:37.496Z,4.10
2017-12-14T05:47:03.488Z,4.10
2017-12-14T05:49:30.184Z,4.20
2017-12-14T05:51:56.167Z,4.20
2017-12-14T05:54:22.456Z,4.30
2017-12-14T05:56:48.436Z,4.30
2017-12-14T05:59:14.424Z,4.30
2017-12-14T06:01:41.446Z,4.00
2017-12-14T06:04:07.415Z,4.00
2017-12-14T06:06:33.365Z,4.10
2017-12-14T06:08:59.357Z,4.10
2017-12-14T06:11:25.363Z,4.10
2017-12-14T06:13:51.353Z,4.10
2017-12-14T06:16:17.356Z,4.00
2017-12-14T06:18:43.376Z,4.00
2017-12-14T06:21:09.343Z,4.00
2017-12-14T06:23:36.094Z,4.10
2017-12-14T06:26:02.069Z,4.10
2017-12-14T06:28:28.049Z,4.10
2017-12-14T06:30:54.014Z,4.10
2017-12-14T06:33:20.730Z,4.10
2017-12-14T06:35:46.704Z,4.10
2017-12-14T06:38:13.436Z,4.10
2017-12-14T06:40:40.188Z,4.10
2017-12-14T06:43:06.887Z,4.10
2017-12-14T06:45:32.870Z,4.10
2017-12-14T06:47:58.849Z,4.20
2017-12-14T06:50:25.613Z,4.20
2017-12-14T06:52:51.617Z,4.20
2017-12-14T06:55:18.315Z,4.20
2017-12-14T06:57:44.309Z,4.20
2017-12-14T07:00:10.279Z,4.20
2017-12-14T07:02:36.264Z,4.20
2017-12-14T07:05:02.245Z,4.20
2017-12-14T07:07:28.979Z,4.20
2017-12-14T07:09:55.692Z,4.20
2017-12-14T07:12:22.028Z,4.20
2017-12-14T07:14:48.001Z,4.20
2017-12-14T07:17:13.963Z,4.20
2017-12-14T07:19:40.315Z,4.20
2017-12-14T07:22:06.291Z,4.20
2017-12-14T07:24:32.272Z,4.30
2017-12-14T07:26:59.001Z,4.30
2017-12-14T07:29:25.723Z,4.30
2017-12-14T07:31:51.702Z,4.30
2017-12-14T07:34:17.709Z,4.30
2017-12-14T07:36:43.684Z,4.30
2017-12-14T07:39:09.637Z,4.40
2017-12-14T07:41:36.396Z,4.40
2017-12-14T07:44:14.839Z,4.30
2017-12-14T07:46:53.342Z,4.30
2017-12-14T07:49:21.276Z,4.30
2017-12-14T07:51:47.241Z,4.30
2017-12-14T07:54:13.226Z,4.40
2017-12-14T07:56:39.180Z,4.40
2017-12-14T07:59:05.155Z,4.40
2017-12-14T08:01:31.156Z,4.40
2017-12-14T08:03:57.129Z,4.40
2017-12-14T08:06:23.091Z,4.40
2017-12-14T08:08:49.435Z,4.40
2017-12-14T08:11:16.168Z,4.40
2017-12-14T08:13:42.167Z,4.40
2017-12-14T08:16:08.400Z,4.40
2017-12-14T08:18:34.380Z,4.40
2017-12-14T08:21:00.376Z,4.40
2017-12-14T08:23:27.140Z,4.50
2017-12-14T08:25:53.853Z,4.50
2017-12-14T08:28:20.565Z,4.50
2017-12-14T08:30:46.816Z,4.50
2017-12-14T08:33:13.591Z,4.50
2017-12-14T08:35:39.915Z,4.50
2017-12-14T08:38:05.908Z,4.40
2017-12-14T08:40:32.624Z,4.40
2017-12-14T08:42:58.619Z,4.40
2017-12-14T08:45:24.608Z,4.40
2017-12-14T08:50:23.344Z,4.40
2017-12-14T08:52:49.307Z,4.50
2017-12-14T08:55:16.033Z,4.60
2017-12-14T08:57:42.273Z,4.50
2017-12-14T09:00:08.993Z,4.50
2017-12-14T09:02:34.964Z,4.50
2017-12-14T09:05:00.968Z,4.50
2017-12-14T09:07:27.652Z,4.50
2017-12-14T09:09:53.634Z,4.50
2017-12-14T09:12:19.843Z,4.50
2017-12-14T09:14:46.560Z,4.50
2017-12-14T09:17:12.536Z,4.50
2017-12-14T09:19:38.721Z,4.50
2017-12-14T09:22:05.421Z,4.50
2017-12-14T09:24:31.377Z,4.50
2017-12-14T09:26:57.515Z,4.40
2017-12-14T09:29:24.238Z,4.40
2017-12-14T09:31:50.220Z,4.40
2017-12-14T09:34:16.226Z,4.40
2017-12-14T09:36:42.228Z,4.40
2017-12-14T09:39:08.965Z,4.40
2017-12-14T09:41:35.900Z,4.40
2017-12-14T09:44:02.625Z,4.40
2017-12-14T09:46:28.617Z,4.40
2017-12-14T09:48:54.892Z,4.40
2017-12-14T09:51:21.632Z,4.30
2017-12-14T09:53:48.368Z,4.40
2017-12-14T09:56:15.352Z,4.50
2017-12-14T09:58:41.321Z,4.50
2017-12-14T10:01:07.320Z,4.50
2017-12-14T10:03:33.573Z,4.50
2017-12-14T10:05:59.543Z,4.50
2017-12-14T10:08:25.500Z,4.50
2017-12-14T10:10:51.739Z,4.50
2017-12-14T10:13:17.698Z,4.50
2017-12-14T10:15:43.668Z,4.50
2017-12-14T10:18:09.640Z,4.50
2017-12-14T10:20:35.592Z,4.50
2017-12-14T10:23:01.564Z,4.50
2017-12-14T10:25:28.301Z,4.40
2017-12-14T10:27:55.057Z,4.40
2017-12-14T10:30:21.029Z,4.40
2017-12-14T10:32:47.064Z,4.40
2017-12-14T10:35:13.797Z,4.30
2017-12-14T10:37:39.800Z,4.30
2017-12-14T10:40:05.784Z,4.30
2017-12-14T10:42:31.758Z,4.40
2017-12-14T10:44:58.000Z,4.30
2017-12-14T10:47:23.995Z,4.30
2017-12-14T10:49:49.960Z,4.30
2017-12-14T10:52:16.697Z,4.30
2017-12-14T10:54:43.761Z,4.30
2017-12-14T10:57:09.720Z,4.30
2017-12-14T10:59:35.725Z,4.30
2017-12-14T11:02:01.696Z,4.30
2017-12-14T11:04:27.657Z,4.30
2017-12-14T11:06:53.745Z,4.20
2017-12-14T11:09:20.447Z,4.10
2017-12-14T11:11:46.420Z,4.10
2017-12-14T11:14:13.140Z,4.10
2017-12-14T11:16:39.910Z,4.00
2017-12-14T11:19:05.876Z,4.00
2017-12-14T11:21:31.855Z,4.00
2017-12-14T11:23:57.828Z,3.90
2017-12-14T11:26:23.816Z,3.90
2017-12-14T11:28:49.824Z,3.80
2017-12-14T11:31:15.791Z,3.80
2017-12-14T11:33:41.780Z,3.80
2017-12-14T11:36:07.823Z,3.80
2017-12-14T11:38:33.786Z,3.80
2017-12-14T11:41:00.521Z,3.90
2017-12-14T11:43:27.232Z,3.90
2017-12-14T11:45:53.218Z,3.80
2017-12-14T11:48:19.393Z,3.90
2017-12-14T11:50:45.349Z,3.90
2017-12-14T11:53:11.321Z,4.00
2017-12-14T11:55:37.305Z,4.20
2017-12-14T11:58:03.300Z,4.20
2017-12-14T12:00:30.000Z,4.30
2017-12-14T12:02:56.344Z,4.30
2017-12-14T12:05:22.312Z,4.20
2017-12-14T12:07:48.272Z,4.20
2017-12-14T12:10:14.304Z,4.20
2017-12-14T12:12:40.221Z,4.20
2017-12-14T12:15:06.185Z,4.30
2017-12-14T12:17:32.180Z,4.30
2017-12-14T12:19:58.911Z,4.20
2017-12-14T12:22:24.872Z,4.20
2017-12-14T12:24:50.837Z,4.20
2017-12-14T12:27:16.816Z,4.20
2017-12-14T12:29:42.793Z,4.20
2017-12-14T12:32:08.809Z,4.20
2017-12-14T12:34:34.781Z,4.20
2017-12-14T12:37:00.757Z,4.30
2017-12-14T12:39:27.214Z,4.20
2017-12-14T12:41:53.944Z,4.20
2017-12-14T12:44:20.676Z,4.10
2017-12-14T12:46:47.624Z,4.20
2017-12-14T12:49:14.349Z,4.20
2017-12-14T12:51:41.090Z,4.20
2017-12-14T12:54:08.058Z,4.10
2017-12-14T12:56:34.782Z,4.20
2017-12-14T12:59:00.750Z,4.20
2017-12-14T13:01:26.931Z,4.20
2017-12-14T13:03:53.656Z,4.20
2017-12-14T13:06:19.666Z,4.10
2017-12-14T13:08:45.645Z,4.20
2017-12-14T13:11:11.624Z,4.20
2017-12-14T13:13:38.308Z,4.20
2017-12-14T13:16:04.308Z,4.20
2017-12-14T13:18:31.102Z,4.20
2017-12-14T13:20:57.060Z,4.20
2017-12-14T13:23:23.788Z,4.20
2017-12-14T13:25:50.748Z,4.30
2017-12-14T13:28:17.456Z,4.30
2017-12-14T13:30:43.436Z,4.30
2017-12-14T13:33:09.430Z,4.30
2017-12-14T13:35:36.144Z,4.30
2017-12-14T13:38:02.105Z,4.30
2017-12-14T13:40:28.141Z,4.40
2017-12-14T13:42:54.131Z,4.30
2017-12-14T13:45:20.869Z,4.40
2017-12-14T13:47:47.005Z,4.30
2017-12-14T13:50:13.747Z,4.30
2017-12-14T13:52:39.704Z,4.30
2017-12-14T13:55:05.690Z,4.30
2017-12-14T13:57:31.678Z,4.40
2017-12-14T13:59:57.627Z,4.40
2017-12-14T14:02:24.366Z,4.30
2017-12-14T14:04:50.354Z,4.30
2017-12-14T14:07:17.074Z,4.30
2017-12-14T14:09:43.058Z,4.30
2017-12-14T14:12:09.037Z,4.30
2017-12-14T14:14:35.004Z,4.30
2017-12-14T14:17:01.520Z,4.20
2017-12-14T14:19:28.237Z,4.20
2017-12-14T14:21:54.269Z,4.30
2017-12-14T14:24:21.024Z,4.20
2017-12-14T14:26:47.740Z,4.10
2017-12-14T14:29:13.716Z,4.10
2017-12-14T14:31:39.701Z,4.10
2017-12-14T14:34:06.409Z,4.00
2017-12-14T14:36:32.400Z,4.00
2017-12-14T14:38:58.373Z,4.00
2017-12-14T14:41:25.100Z,4.00
2017-12-14T14:43:51.073Z,4.00
2017-12-14T14:46:17.270Z,4.00
2017-12-14T14:48:43.974Z,4.00
2017-12-14T14:51:09.937Z,4.00
2017-12-14T14:53:35.939Z,4.00
2017-12-14T14:56:01.893Z,4.00
2017-12-14T14:58:27.872Z,4.10
2017-12-14T15:00:54.028Z,4.10
2017-12-14T15:03:19.993Z,4.10
2017-12-14T15:05:45.969Z,4.20
2017-12-14T15:08:11.950Z,4.20
2017-12-14T15:10:37.921Z,4.20
2017-12-14T15:13:03.964Z,4.30
2017-12-14T15:15:29.925Z,4.30
2017-12-14T15:17:55.916Z,4.30
2017-12-14T15:20:21.885Z,4.30
2017-12-14T15:22:48.622Z,4.30
2017-12-14T15:25:15.316Z,4.30
2017-12-14T15:27:41.305Z,4.30
2017-12-14T15:30:07.290Z,4.30
2017-12-14T15:32:33.296Z,4.30
2017-12-14T15:34:59.280Z,4.30
2017-12-14T15:37:25.260Z,4.20
2017-12-14T15:39:51.985Z,4.30
2017-12-14T15:42:17.952Z,4.30
2017-12-14T15:44:43.934Z,4.30
2017-12-14T15:47:09.884Z,4.40
2017-12-14T15:49:36.623Z,4.30
2017-12-14T15:52:02.600Z,4.30
2017-12-14T15:54:28.564Z,4.30
2017-12-14T15:56:55.284Z,4.30
2017-12-14T15:59:22.013Z,4.30
2017-12-14T16:01:48.041Z,4.30
2017-12-14T16:04:14.996Z,4.30
2017-12-14T16:06:41.709Z,4.30
2017-12-14T16:09:07.675Z,4.30
2017-12-14T16:11:33.648Z,4.30
2017-12-14T16:13:59.606Z,4.30
2017-12-14T16:16:26.536Z,4.30
2017-12-14T16:18:53.237Z,4.30
2017-12-14T16:21:19.222Z,4.30
2017-12-14T16:23:45.192Z,4.30
2017-12-14T16:26:11.151Z,4.20
2017-12-14T16:28:37.869Z,4.20
2017-12-14T16:31:04.168Z,4.20
2017-12-14T16:33:30.152Z,4.30
2017-12-14T16:35:56.115Z,4.20
2017-12-14T16:38:22.097Z,4.20
2017-12-14T16:40:48.115Z,4.10
2017-12-14T16:43:14.317Z,4.10
2017-12-14T16:45:41.031Z,4.10
2017-12-14T16:48:07.004Z,4.10
2017-12-14T16:50:33.175Z,4.10
2017-12-14T16:52:59.127Z,4.10
2017-12-14T16:55:25.841Z,4.10
2017-12-14T16:57:51.829Z,4.10
2017-12-14T17:00:17.808Z,4.10
2017-12-14T17:02:44.540Z,4.20
2017-12-14T17:05:11.276Z,4.10
2017-12-14T17:07:37.257Z,4.10
2017-12-14T17:10:03.211Z,4.20
2017-12-14T17:12:29.378Z,4.20
2017-12-14T17:14:55.672Z,4.20
2017-12-14T17:17:22.381Z,4.30
2017-12-14T17:19:48.384Z,4.20
2017-12-14T17:22:14.652Z,4.20
2017-12-14T17:24:40.612Z,4.20
2017-12-14T17:27:06.564Z,4.10
2017-12-14T17:29:32.934Z,4.30
2017-12-14T17:31:59.665Z,4.30
2017-12-14T17:34:25.632Z,4.30
2017-12-14T17:36:51.631Z,4.30
2017-12-14T17:39:18.384Z,4.30
2017-12-14T17:41:44.361Z,4.30
2017-12-14T17:44:10.355Z,4.40
2017-12-14T17:46:36.309Z,4.30
2017-12-14T17:49:02.320Z,4.30
2017-12-14T17:51:28.272Z,4.30
2017-12-14T17:53:54.998Z,4.30
2017-12-14T17:56:20.980Z,4.30
2017-12-14T17:58:46.973Z,4.20
2017-12-14T18:01:12.953Z,4.30
2017-12-14T18:03:39.293Z,4.20
2017-12-14T18:06:06.019Z,4.30
2017-12-14T18:08:32.727Z,4.30
2017-12-14T18:10:58.704Z,4.20
2017-12-14T18:13:25.412Z,4.20
2017-12-14T18:15:51.392Z,4.20
2017-12-14T18:18:17.797Z,4.20
2017-12-14T18:20:44.524Z,4.20
2017-12-14T18:23:11.233Z,4.20
2017-12-14T18:25:44.964Z,4.10
2017-12-14T18:28:11.690Z,4.20
2017-12-14T18:30:37.665Z,4.20
2017-12-14T18:33:03.661Z,4.10
2017-12-14T18:35:30.401Z,4.20
2017-12-14T18:37:57.121Z,4.10
2017-12-14T18:40:23.104Z,4.10
2017-12-14T18:42:49.174Z,4.10
2017-12-14T18:45:15.924Z,4.10
2017-12-14T18:47:42.829Z,4.10
2017-12-14T18:50:09.073Z,4.10
2017-12-14T18:52:35.041Z,4.10
2017-12-14T18:55:01.027Z,4.10
2017-12-14T18:57:28.111Z,4.10
2017-12-14T18:59:54.085Z,4.10
2017-12-14T19:02:20.065Z,4.00
2017-12-14T19:04:46.228Z,4.00
2017-12-14T19:07:12.209Z,3.90
2017-12-14T19:09:38.180Z,3.90
2017-12-14T19:12:05.221Z,3.90
2017-12-14T19:14:31.194Z,3.90
2017-12-14T19:16:57.211Z,3.90
2017-12-14T19:19:23.280Z,3.90
2017-12-14T19:21:49.252Z,3.90
2017-12-14T19:24:15.245Z,3.90
2017-12-14T19:26:41.980Z,3.90
2017-12-14T19:29:08.727Z,3.90
2017-12-14T19:31:35.445Z,4.00
2017-12-14T19:34:02.529Z,4.00
2017-12-14T19:36:28.502Z,3.90
2017-12-14T19:38:54.477Z,4.00
2017-12-14T19:41:20.494Z,3.90
2017-12-14T19:43:46.469Z,3.90
2017-12-14T19:46:12.437Z,3.80
2017-12-14T19:48:38.464Z,3.80
2017-12-14T19:51:04.446Z,3.90
2017-12-14T19:53:30.458Z,3.90
2017-12-14T19:55:57.551Z,3.90
2017-12-14T19:58:23.563Z,3.90
2017-12-14T20:00:50.347Z,3.90
2017-12-14T20:03:16.329Z,3.90
2017-12-14T20:05:42.316Z,4.00
2017-12-14T20:08:08.351Z,4.00
2017-12-14T20:10:35.081Z,4.00
2017-12-14T20:13:01.810Z,4.10
2017-12-14T20:15:27.796Z,4.10
2017-12-14T20:17:53.802Z,4.00
2017-12-14T20:20:19.770Z,4.10
2017-12-14T20:22:45.738Z,4.10
2017-12-14T20:25:11.733Z,4.10
2017-12-14T20:27:38.445Z,4.10
2017-12-14T20:30:04.630Z,4.10
2017-12-14T20:32:30.612Z,4.10
2017-12-14T20:34:56.581Z,4.10
2017-12-14T20:37:22.768Z,4.10
2017-12-14T20:39:49.481Z,4.10
2017-12-14T20:42:15.461Z,4.10
2017-12-14T20:44:41.669Z,4.10
2017-12-14T20:47:08.393Z,4.10
2017-12-14T20:49:35.149Z,4.00
2017-12-14T20:52:02.077Z,4.00
2017-12-14T20:54:28.822Z,4.00
2017-12-14T20:56:55.540Z,4.00
2017-12-14T20:59:21.540Z,3.90
2017-12-14T21:01:47.509Z,3.90
2017-12-14T21:04:14.229Z,4.00
2017-12-14T21:06:40.229Z,4.00
2017-12-14T21:09:06.197Z,3.90
2017-12-14T21:11:32.918Z,4.00
2017-12-14T21:13:59.646Z,4.00
2017-12-14T21:16:25.614Z,3.90
2017-12-14T21:18:51.612Z,4.10
2017-12-14T21:21:17.773Z,4.10
2017-12-14T21:23:43.760Z,4.00
2017-12-14T21:26:10.525Z,4.10
2017-12-14T21:28:36.757Z,4.10
2017-12-14T21:31:02.733Z,4.00
2017-12-14T21:33:29.479Z,4.10
2017-12-14T21:35:56.212Z,4.10
2017-12-14T21:38:23.164Z,4.10
2017-12-14T21:40:49.884Z,4.10
2017-12-14T21:43:15.849Z,4.10
2017-12-14T21:45:41.849Z,4.10
2017-12-14T21:48:08.552Z,4.10
2017-12-14T21:50:34.548Z,4.10
2017-12-14T21:53:00.549Z,4.20
2017-12-14T21:55:26.516Z,4.20
2017-12-14T21:57:52.476Z,4.20
2017-12-14T22:00:19.522Z,4.20
2017-12-14T22:02:46.240Z,4.10
2017-12-14T22:05:12.209Z,4.10
2017-12-14T22:07:38.488Z,4.10
2017-12-14T22:10:04.481Z,4.10
2017-12-14T22:12:30.453Z,4.10
2017-12-14T22:14:57.185Z,4.10
2017-12-14T22:17:23.914Z,4.10
2017-12-14T22:19:50.617Z,4.20
2017-12-14T22:22:16.764Z,4.20
2017-12-14T22:24:42.760Z,4.20
2017-12-14T22:27:08.704Z,4.20
2017-12-14T22:29:34.680Z,4.10
2017-12-14T22:32:00.668Z,4.10
2017-12-14T22:34:27.377Z,4.20
2017-12-14T22:36:53.340Z,4.20
2017-12-14T22:39:20.112Z,4.20
2017-12-14T22:41:46.796Z,4.20
2017-12-14T22:44:12.754Z,4.20
2017-12-14T22:46:38.740Z,4.30
2017-12-14T22:49:04.958Z,4.20
2017-12-14T22:51:30.942Z,4.20
2017-12-14T22:53:56.928Z,4.20
2017-12-14T22:56:23.648Z,4.20
2017-12-14T22:58:49.655Z,4.20
2017-12-14T23:01:15.623Z,4.20
2017-12-14T23:03:41.841Z,4.30
2017-12-14T23:06:07.808Z,4.20
2017-12-14T23:08:33.768Z,4.20
2017-12-14T23:11:07.524Z,4.20
2017-12-14T23:13:33.486Z,4.20
2017-12-14T23:16:00.218Z,4.20
2017-12-14T23:18:26.210Z,4.20
2017-12-14T23:20:52.181Z,4.20
2017-12-14T23:23:18.898Z,4.20
2017-12-14T23:25:44.884Z,4.20
2017-12-14T23:28:10.886Z,4.20
2017-12-14T23:30:36.860Z,4.20
2017-12-14T23:33:02.866Z,4.10
2017-12-14T23:35:28.836Z,4.20
2017-12-14T23:37:54.808Z,4.20
2017-12-14T23:40:20.796Z,4.20
2017-12-14T23:42:46.767Z,4.20
2017-12-14T23:45:12.740Z,4.20
2017-12-14T23:47:38.748Z,4.20
2017-12-14T23:50:04.717Z,4.20
2017-12-14T23:52:30.704Z,4.20
2017-12-14T23:54:56.696Z,4.20
2017-12-14T23:57:22.692Z,4.20
2017-12-14T23:59:48.677Z,4.20
